Time;durP1;ratioP1;P1;durP2;ratioP2;P2;SDS_P1;SDS_P2;PMS_P1;PMS_P2;Temp;Humidity;BMP_temperature;BMP_pressure;BME280_temperature;BME280_humidity;BME280_pressure;Samples;Min_cycle;Max_cycle;Signal;HPM_P1;HPM_P2
2021/06/21 00:01:56;;;;;;;8.00;5.47;;;21.40;99.90;;;;;;5035903;28;20542;-74
2021/06/21 00:04:23;;;;;;;7.23;4.90;;;21.30;99.90;;;;;;5032571;28;20538;-77
2021/06/21 00:06:50;;;;;;;6.40;4.57;;;21.20;99.90;;;;;;5030024;28;20472;-75
2021/06/21 00:09:16;;;;;;;9.47;5.40;;;21.20;99.90;;;;;;5014722;28;20455;-76
2021/06/21 00:11:43;;;;;;;6.70;5.47;;;21.10;99.90;;;;;;5030775;28;20484;-77
2021/06/21 00:14:10;;;;;;;9.67;5.20;;;21.00;99.90;;;;;;5044660;28;20432;-75
2021/06/21 00:16:37;;;;;;;6.90;5.50;;;21.00;99.90;;;;;;5017971;28;20469;-76
2021/06/21 00:19:05;;;;;;;5.33;4.83;;;20.90;99.90;;;;;;5012382;28;20436;-75
2021/06/21 00:21:32;;;;;;;7.30;5.40;;;21.00;99.90;;;;;;5011385;28;20469;-76
2021/06/21 00:23:58;;;;;;;6.20;4.97;;;21.00;99.90;;;;;;5031201;28;20424;-76
2021/06/21 00:26:25;;;;;;;5.60;5.10;;;20.90;99.90;;;;;;5031843;28;20544;-75
2021/06/21 00:28:53;;;;;;;7.80;4.97;;;20.80;99.90;;;;;;5032412;28;20952;-74
2021/06/21 00:31:20;;;;;;;6.07;5.57;;;20.90;99.90;;;;;;5030692;28;20486;-75
2021/06/21 00:33:47;;;;;;;5.53;5.13;;;20.70;99.90;;;;;;5030873;28;20460;-75
2021/06/21 00:36:14;;;;;;;6.43;5.83;;;20.70;99.90;;;;;;5031697;28;20902;-75
2021/06/21 00:38:41;;;;;;;6.50;5.93;;;20.70;99.90;;;;;;5030672;28;20495;-76
2021/06/21 00:41:08;;;;;;;7.73;6.10;;;20.70;99.90;;;;;;5031644;28;20472;-76
2021/06/21 00:43:35;;;;;;;8.20;6.00;;;20.70;99.90;;;;;;5032127;28;20953;-76
2021/06/21 00:46:02;;;;;;;7.43;6.67;;;20.60;99.90;;;;;;5024560;28;20489;-76
2021/06/21 00:48:29;;;;;;;6.30;5.80;;;20.60;99.90;;;;;;5011862;28;20448;-75
2021/06/21 00:50:56;;;;;;;7.40;6.67;;;20.70;99.90;;;;;;5011973;28;20555;-76
2021/06/21 00:53:24;;;;;;;7.93;6.83;;;20.70;99.90;;;;;;5027822;28;20478;-75
2021/06/21 00:55:51;;;;;;;9.93;6.40;;;20.60;99.90;;;;;;5031669;28;20460;-75
2021/06/21 00:58:18;;;;;;;8.33;6.80;;;20.60;99.90;;;;;;5031171;28;20452;-75
2021/06/21 01:00:45;;;;;;;9.03;6.87;;;20.60;99.90;;;;;;5030190;28;20460;-76
2021/06/21 01:03:12;;;;;;;7.80;7.00;;;20.60;99.90;;;;;;5030545;28;20466;-75
2021/06/21 01:05:39;;;;;;;7.37;6.37;;;20.60;99.90;;;;;;5031221;28;20459;-76
2021/06/21 01:08:07;;;;;;;9.83;7.30;;;20.60;99.90;;;;;;5030784;28;20470;-75
2021/06/21 01:10:37;;;;;;;9.00;7.43;;;20.50;99.90;;;;;;5032201;28;20948;-75
2021/06/21 01:13:16;;;;;;;8.37;7.53;;;20.50;99.90;;;;;;5034595;28;20864;-75
2021/06/21 01:16:14;;;;;;;9.17;8.27;;;20.40;99.90;;;;;;5034481;28;20466;-76
2021/06/21 01:19:13;;;;;;;8.90;6.83;;;20.50;99.90;;;;;;5015812;28;20456;-75
2021/06/21 01:22:20;;;;;;;8.00;7.30;;;20.50;99.90;;;;;;5000171;28;20550;-75
2021/06/21 01:25:19;;;;;;;9.40;7.80;;;20.50;99.90;;;;;;5034383;28;20522;-75
2021/06/21 01:28:30;;;;;;;9.70;8.10;;;20.40;99.90;;;;;;5033923;28;20459;-75
2021/06/21 01:31:14;;;;;;;10.60;8.23;;;20.40;99.90;;;;;;5010045;28;20546;-75
2021/06/21 01:33:43;;;;;;;9.97;8.97;;;20.40;99.90;;;;;;5035415;28;20474;-75
2021/06/21 01:36:13;;;;;;;9.67;8.87;;;20.40;99.90;;;;;;5033527;28;20824;-75
2021/06/21 01:38:43;;;;;;;8.73;7.80;;;20.40;99.90;;;;;;5034150;28;20474;-75
2021/06/21 01:41:33;;;;;;;14.97;9.93;;;20.40;99.90;;;;;;5034750;28;20468;-75
2021/06/21 01:44:04;;;;;;;9.93;8.93;;;20.40;99.90;;;;;;5034142;28;20424;-76
2021/06/21 01:46:34;;;;;;;11.77;9.80;;;20.30;99.90;;;;;;5010673;28;20529;-76
2021/06/21 01:49:23;;;;;;;11.37;9.90;;;20.40;99.90;;;;;;5013867;28;20915;-76
2021/06/21 01:51:55;;;;;;;10.33;9.33;;;20.30;99.90;;;;;;5034478;28;20493;-75
2021/06/21 01:54:28;;;;;;;10.33;9.23;;;20.40;99.90;;;;;;5015333;28;20424;-78
2021/06/21 01:56:58;;;;;;;10.47;9.47;;;20.40;99.90;;;;;;5016780;28;20459;-76
2021/06/21 01:59:27;;;;;;;10.17;9.23;;;20.30;99.90;;;;;;5034868;28;20985;-73
2021/06/21 02:01:59;;;;;;;14.30;10.73;;;20.30;99.90;;;;;;5031318;28;20458;-75
2021/06/21 02:04:29;;;;;;;13.40;12.20;;;20.30;99.90;;;;;;5054960;28;20510;-75
2021/06/21 02:06:59;;;;;;;14.30;11.40;;;20.20;99.90;;;;;;5053569;28;20909;-76
2021/06/21 02:09:27;;;;;;;12.20;10.87;;;20.30;99.90;;;;;;5054628;28;20458;-76
2021/06/21 02:11:55;;;;;;;13.80;12.13;;;20.30;99.90;;;;;;5036011;28;20465;-75
2021/06/21 02:14:28;;;;;;;12.83;11.37;;;20.30;99.90;;;;;;5036978;28;21104;-76
2021/06/21 02:16:57;;;;;;;12.93;11.63;;;20.30;99.90;;;;;;5032449;28;20549;-76
2021/06/21 02:19:26;;;;;;;13.33;12.03;;;20.20;99.90;;;;;;5034358;28;20447;-75
2021/06/21 02:21:54;;;;;;;12.90;11.60;;;20.20;99.90;;;;;;5019810;28;20973;-76
2021/06/21 02:24:22;;;;;;;14.00;12.70;;;20.10;99.90;;;;;;5054644;28;20422;-76
2021/06/21 02:26:50;;;;;;;14.90;13.50;;;20.10;99.90;;;;;;5036274;28;20471;-76
2021/06/21 02:29:21;;;;;;;14.50;13.10;;;20.10;99.90;;;;;;5054005;28;20436;-75
2021/06/21 02:31:49;;;;;;;14.27;12.97;;;20.10;99.90;;;;;;5052622;28;20468;-76
2021/06/21 02:34:16;;;;;;;16.60;15.07;;;20.00;99.90;;;;;;5036203;28;20479;-75
2021/06/21 02:36:43;;;;;;;17.17;15.40;;;20.10;99.90;;;;;;5034858;28;20481;-75
2021/06/21 02:39:11;;;;;;;15.67;14.27;;;20.10;99.90;;;;;;5036266;28;20462;-76
2021/06/21 02:41:37;;;;;;;17.00;15.30;;;20.00;99.90;;;;;;5036040;28;20862;-76
2021/06/21 02:44:05;;;;;;;18.83;16.87;;;20.00;99.90;;;;;;5036335;28;20426;-75
2021/06/21 02:46:32;;;;;;;18.60;16.60;;;20.10;99.90;;;;;;5052428;28;20487;-76
2021/06/21 02:48:59;;;;;;;18.30;16.50;;;20.00;99.90;;;;;;5053633;28;20470;-75
2021/06/21 02:51:40;;;;;;;18.73;16.93;;;20.10;99.90;;;;;;5034969;28;20860;-75
2021/06/21 02:54:47;;;;;;;20.33;18.33;;;20.10;99.90;;;;;;5033925;28;20464;-75
2021/06/21 02:57:26;;;;;;;18.07;16.30;;;20.10;99.90;;;;;;4991617;28;20461;-76
2021/06/21 02:59:54;;;;;;;20.73;17.80;;;20.10;99.90;;;;;;5011689;28;20458;-76
2021/06/21 03:02:22;;;;;;;19.30;17.40;;;20.20;99.90;;;;;;5050304;28;20476;-75
2021/06/21 03:04:53;;;;;;;21.17;18.23;;;20.20;99.90;;;;;;5052107;28;20424;-74
2021/06/21 03:07:22;;;;;;;21.50;19.20;;;20.20;99.90;;;;;;5039801;28;20462;-75
2021/06/21 03:09:49;;;;;;;19.60;17.80;;;20.10;99.90;;;;;;5053412;28;20461;-76
2021/06/21 03:12:24;;;;;;;22.57;20.17;;;20.00;99.90;;;;;;5052906;28;20463;-75
2021/06/21 03:14:51;;;;;;;20.50;17.07;;;20.00;99.90;;;;;;5052880;28;20536;-74
2021/06/21 03:17:19;;;;;;;24.90;19.70;;;20.00;99.90;;;;;;5052631;28;20848;-75
2021/06/21 03:19:47;;;;;;;23.00;18.93;;;19.90;99.90;;;;;;5053492;28;20445;-75
2021/06/21 03:22:18;;;;;;;19.10;16.90;;;19.90;99.90;;;;;;5051855;28;20467;-75
2021/06/21 03:24:51;;;;;;;22.00;18.57;;;20.00;99.90;;;;;;5035700;28;20451;-75
2021/06/21 03:27:25;;;;;;;21.13;18.70;;;19.90;99.90;;;;;;5052786;28;20474;-75
2021/06/21 03:29:53;;;;;;;25.40;19.70;;;20.00;99.90;;;;;;5027545;28;20467;-75
2021/06/21 03:32:25;;;;;;;23.70;20.33;;;20.00;99.90;;;;;;5032838;28;20478;-75
2021/06/21 03:35:00;;;;;;;24.27;19.60;;;20.00;99.90;;;;;;5032661;28;20431;-75
2021/06/21 03:37:29;;;;;;;22.63;19.67;;;20.00;99.90;;;;;;5023241;28;20537;-75
2021/06/21 03:39:57;;;;;;;24.03;19.37;;;20.20;99.90;;;;;;5052762;28;20437;-75
2021/06/21 03:42:24;;;;;;;23.23;20.80;;;20.20;99.90;;;;;;5058418;28;20883;-75
2021/06/21 03:44:54;;;;;;;21.77;19.43;;;20.20;99.90;;;;;;5035572;28;20524;-76
2021/06/21 03:47:21;;;;;;;23.30;20.90;;;20.20;99.90;;;;;;5008950;28;21147;-74
2021/06/21 03:49:49;;;;;;;24.33;21.70;;;20.20;99.90;;;;;;5015155;28;20534;-74
2021/06/21 03:52:16;;;;;;;23.37;20.90;;;20.10;99.90;;;;;;5038470;28;20469;-75
2021/06/21 03:54:44;;;;;;;26.07;22.77;;;20.10;99.90;;;;;;5051392;28;20481;-75
2021/06/21 03:57:11;;;;;;;23.63;21.13;;;20.10;99.90;;;;;;5052129;28;20524;-76
2021/06/21 03:59:38;;;;;;;23.93;21.43;;;20.10;99.90;;;;;;5051613;28;20439;-77
2021/06/21 04:02:05;;;;;;;26.37;23.80;;;20.10;99.90;;;;;;5047843;28;20485;-74
2021/06/21 04:04:32;;;;;;;28.73;25.63;;;20.10;99.90;;;;;;5052442;28;20423;-75
2021/06/21 04:06:59;;;;;;;25.27;22.60;;;20.10;99.90;;;;;;5050218;28;20777;-75
2021/06/21 04:09:26;;;;;;;29.80;26.60;;;20.10;99.90;;;;;;5052228;28;20484;-74
2021/06/21 04:11:53;;;;;;;30.50;23.77;;;20.20;99.90;;;;;;5051908;28;20476;-74
2021/06/21 04:14:20;;;;;;;27.60;24.70;;;20.20;99.90;;;;;;5051039;28;21076;-75
2021/06/21 04:16:49;;;;;;;30.50;27.30;;;20.10;99.90;;;;;;5040536;28;20485;-76
2021/06/21 04:19:16;;;;;;;28.73;25.53;;;20.10;99.90;;;;;;5032018;28;20530;-74
2021/06/21 04:21:43;;;;;;;30.90;25.47;;;20.10;99.90;;;;;;5055384;28;20719;-75
2021/06/21 04:24:10;;;;;;;30.60;25.00;;;20.10;99.90;;;;;;5052528;28;20426;-74
2021/06/21 04:26:37;;;;;;;31.83;26.80;;;20.10;99.90;;;;;;5051734;28;20470;-75
2021/06/21 04:29:04;;;;;;;35.60;30.40;;;20.10;99.90;;;;;;5051852;28;20549;-75
2021/06/21 04:31:47;;;;;;;30.50;27.30;;;20.20;99.90;;;;;;5050811;28;20529;-75
2021/06/21 04:34:15;;;;;;;32.30;28.37;;;20.20;99.90;;;;;;5052130;28;20472;-75
2021/06/21 04:36:42;;;;;;;33.63;30.10;;;20.10;99.90;;;;;;5050421;28;20461;-75
2021/06/21 04:39:08;;;;;;;32.87;29.47;;;20.00;99.90;;;;;;5050584;28;20432;-75
2021/06/21 04:41:36;;;;;;;39.40;33.27;;;19.90;99.90;;;;;;5051241;28;20453;-75
2021/06/21 04:44:03;;;;;;;33.70;30.00;;;19.90;99.90;;;;;;5051864;28;20457;-75
2021/06/21 04:46:33;;;;;;;34.57;30.80;;;19.90;99.90;;;;;;5050415;28;20570;-76
2021/06/21 04:49:01;;;;;;;33.30;29.80;;;20.00;99.90;;;;;;5051627;28;20446;-75
2021/06/21 04:51:32;;;;;;;34.77;31.10;;;20.00;99.90;;;;;;5049386;28;20475;-75
2021/06/21 04:53:59;;;;;;;38.40;30.80;;;20.00;99.90;;;;;;5031883;28;20493;-74
2021/06/21 04:56:25;;;;;;;31.43;28.07;;;20.00;99.90;;;;;;5031419;28;20464;-75
2021/06/21 04:58:54;;;;;;;35.17;28.73;;;20.00;99.90;;;;;;5029930;28;21028;-75
2021/06/21 05:01:21;;;;;;;30.63;27.33;;;20.00;99.90;;;;;;5055930;28;20474;-75
2021/06/21 05:03:48;;;;;;;35.03;29.20;;;20.00;99.90;;;;;;5051757;28;20427;-75
2021/06/21 05:06:15;;;;;;;32.10;28.70;;;20.00;99.90;;;;;;5049992;28;20470;-74
2021/06/21 05:08:42;;;;;;;30.80;26.30;;;20.00;99.90;;;;;;5049270;28;20517;-74
2021/06/21 05:11:09;;;;;;;27.53;24.67;;;20.00;99.90;;;;;;5050114;28;20459;-75
2021/06/21 05:13:36;;;;;;;29.97;25.13;;;20.00;99.90;;;;;;5051521;28;20544;-74
2021/06/21 05:16:03;;;;;;;26.60;23.60;;;20.00;99.90;;;;;;5050570;28;20541;-74
2021/06/21 05:18:30;;;;;;;24.90;22.23;;;20.00;99.90;;;;;;5051514;28;20505;-74
2021/06/21 05:20:59;;;;;;;25.47;22.67;;;20.00;99.90;;;;;;5033366;28;20459;-74
2021/06/21 05:23:26;;;;;;;24.90;22.30;;;20.10;99.90;;;;;;5050397;28;20449;-73
2021/06/21 05:25:53;;;;;;;23.77;21.33;;;20.10;99.90;;;;;;5049416;28;20472;-75
2021/06/21 05:28:20;;;;;;;25.60;21.00;;;20.10;99.90;;;;;;5051281;28;20461;-75
2021/06/21 05:30:47;;;;;;;25.03;22.43;;;20.20;99.90;;;;;;5048395;28;20447;-74
2021/06/21 05:33:14;;;;;;;22.20;19.93;;;20.20;99.90;;;;;;5051481;28;20461;-74
2021/06/21 05:35:41;;;;;;;22.43;19.97;;;20.20;99.90;;;;;;5050826;28;20462;-74
2021/06/21 05:38:09;;;;;;;26.30;22.73;;;20.30;99.90;;;;;;5035872;28;20566;-74
2021/06/21 05:40:36;;;;;;;21.60;19.40;;;20.30;99.90;;;;;;5029518;28;20455;-73
2021/06/21 05:43:03;;;;;;;20.70;18.70;;;20.40;99.90;;;;;;5031482;28;20417;-74
2021/06/21 05:45:29;;;;;;;20.07;17.87;;;20.40;99.90;;;;;;5036717;28;20448;-74
2021/06/21 05:47:56;;;;;;;21.10;18.37;;;20.40;99.90;;;;;;5029840;28;20499;-74
2021/06/21 05:50:23;;;;;;;20.03;17.93;;;20.40;99.90;;;;;;5030669;28;20477;-74
2021/06/21 05:52:50;;;;;;;17.83;15.53;;;20.40;99.90;;;;;;5042613;28;20431;-74
2021/06/21 05:55:19;;;;;;;19.27;16.93;;;20.40;99.90;;;;;;5050699;28;20473;-74
2021/06/21 05:57:46;;;;;;;17.57;15.67;;;20.40;99.90;;;;;;5053800;28;20420;-74
2021/06/21 06:00:14;;;;;;;17.73;15.83;;;20.40;99.90;;;;;;5068497;28;20439;-74
2021/06/21 06:02:43;;;;;;;17.93;16.13;;;20.40;99.90;;;;;;5053496;28;20921;-74
2021/06/21 06:05:10;;;;;;;18.33;16.53;;;20.40;99.90;;;;;;5053163;28;20429;-73
2021/06/21 06:07:37;;;;;;;17.60;14.50;;;20.40;99.90;;;;;;5054131;28;20474;-74
2021/06/21 06:10:05;;;;;;;14.10;12.70;;;20.50;99.90;;;;;;5069732;28;20439;-75
2021/06/21 06:12:32;;;;;;;16.17;14.57;;;20.40;99.90;;;;;;5054535;28;20427;-74
2021/06/21 06:15:00;;;;;;;16.33;14.50;;;20.40;99.90;;;;;;5052491;28;20458;-74
2021/06/21 06:17:27;;;;;;;16.63;15.03;;;20.50;99.90;;;;;;5053549;28;20463;-75
2021/06/21 06:19:54;;;;;;;16.97;15.37;;;20.50;99.90;;;;;;5066509;28;20484;-75
2021/06/21 06:22:24;;;;;;;17.33;14.47;;;20.50;99.90;;;;;;5056399;28;20568;-74
2021/06/21 06:24:51;;;;;;;17.63;14.23;;;20.40;99.90;;;;;;5054515;28;20430;-74
2021/06/21 06:27:19;;;;;;;14.17;12.87;;;20.40;99.90;;;;;;5053703;28;20502;-75
2021/06/21 06:29:45;;;;;;;13.97;12.57;;;20.40;99.90;;;;;;5053126;28;20505;-74
2021/06/21 06:32:12;;;;;;;13.73;12.30;;;20.50;99.90;;;;;;5052838;28;20463;-73
2021/06/21 06:34:39;;;;;;;10.57;9.57;;;20.40;99.90;;;;;;5052926;28;20474;-74
2021/06/21 06:37:06;;;;;;;7.90;7.30;;;20.30;99.90;;;;;;5052317;28;20505;-74
2021/06/21 06:39:33;;;;;;;8.67;7.97;;;20.10;99.90;;;;;;5054044;28;20445;-74
2021/06/21 06:42:00;;;;;;;8.60;7.90;;;20.00;99.90;;;;;;5053796;28;20451;-74
2021/06/21 06:44:28;;;;;;;10.00;7.93;;;19.90;99.90;;;;;;5069453;28;20424;-74
2021/06/21 06:46:56;;;;;;;8.93;8.13;;;19.90;99.90;;;;;;5051767;28;20452;-74
2021/06/21 06:49:25;;;;;;;8.70;7.87;;;19.80;99.90;;;;;;5053838;28;20790;-74
2021/06/21 06:51:54;;;;;;;10.97;8.80;;;19.70;99.90;;;;;;5051631;28;20559;-74
2021/06/21 06:54:23;;;;;;;11.30;10.30;;;19.70;99.90;;;;;;5052643;28;20495;-74
2021/06/21 06:56:59;;;;;;;10.17;9.03;;;19.60;99.90;;;;;;5051922;28;20905;-74
2021/06/21 06:59:27;;;;;;;10.80;9.80;;;19.70;99.90;;;;;;5053744;28;20441;-74
2021/06/21 07:01:54;;;;;;;10.53;9.17;;;19.70;99.90;;;;;;5047106;28;20451;-75
2021/06/21 07:04:21;;;;;;;10.57;9.67;;;19.50;99.90;;;;;;5053789;28;20425;-74
2021/06/21 07:06:48;;;;;;;10.70;9.80;;;19.40;99.90;;;;;;5051859;28;20476;-76
2021/06/21 07:09:18;;;;;;;9.63;8.73;;;19.30;99.90;;;;;;5053395;28;20469;-76
2021/06/21 07:11:48;;;;;;;11.17;10.10;;;19.10;99.90;;;;;;5047117;28;20547;-75
2021/06/21 07:14:18;;;;;;;9.93;9.03;;;18.90;99.90;;;;;;5049929;28;20462;-74
2021/06/21 07:16:46;;;;;;;10.20;9.30;;;18.90;99.90;;;;;;5035510;28;20465;-74
2021/06/21 07:19:34;;;;;;;8.27;7.57;;;18.80;99.90;;;;;;5015918;28;20456;-74
2021/06/21 07:22:07;;;;;;;7.13;6.50;;;18.70;99.90;;;;;;5011324;28;20492;-75
2021/06/21 07:24:35;;;;;;;7.90;7.10;;;18.60;99.90;;;;;;5032339;28;20428;-74
2021/06/21 07:27:04;;;;;;;9.10;8.27;;;18.50;99.90;;;;;;5049306;28;20465;-73
2021/06/21 07:29:34;;;;;;;6.87;5.97;;;18.50;99.90;;;;;;5033087;28;20458;-74
2021/06/21 07:32:01;;;;;;;11.10;6.20;;;18.40;99.90;;;;;;5036766;28;20517;-75
2021/06/21 07:34:29;;;;;;;10.83;7.17;;;18.30;99.90;;;;;;5068547;28;20915;-74
2021/06/21 07:36:56;;;;;;;7.57;6.73;;;18.40;99.90;;;;;;5051551;28;20479;-75
2021/06/21 07:39:23;;;;;;;7.33;6.20;;;18.40;99.90;;;;;;5051373;28;20447;-75
2021/06/21 07:41:50;;;;;;;5.87;5.30;;;18.40;99.90;;;;;;5051334;28;20463;-75
2021/06/21 07:44:17;;;;;;;6.17;4.37;;;18.40;99.90;;;;;;5052800;28;20519;-74
2021/06/21 07:46:43;;;;;;;7.30;4.50;;;18.40;99.90;;;;;;5050233;28;21007;-74
2021/06/21 07:49:11;;;;;;;5.07;3.90;;;18.40;99.90;;;;;;5051010;28;20459;-73
2021/06/21 07:51:37;;;;;;;3.97;3.57;;;18.40;99.90;;;;;;5051263;28;20463;-74
2021/06/21 07:54:05;;;;;;;3.53;3.23;;;18.20;99.90;;;;;;5052777;28;20509;-73
2021/06/21 07:56:34;;;;;;;7.80;3.53;;;18.10;99.90;;;;;;5052127;28;20454;-73
2021/06/21 07:59:01;;;;;;;3.27;2.83;;;18.20;99.90;;;;;;5051135;28;20487;-75
2021/06/21 08:01:28;;;;;;;3.03;2.83;;;18.20;99.90;;;;;;5029305;28;20483;-74
2021/06/21 08:03:56;;;;;;;3.03;2.73;;;18.20;99.90;;;;;;5034013;28;20966;-74
2021/06/21 08:06:24;;;;;;;2.60;2.40;;;18.10;99.90;;;;;;5047165;28;20460;-73
2021/06/21 08:08:51;;;;;;;2.77;2.33;;;18.00;99.90;;;;;;5047215;28;20514;-73
2021/06/21 08:11:18;;;;;;;6.27;4.87;;;18.00;99.90;;;;;;5047395;28;20456;-74
2021/06/21 08:13:45;;;;;;;3.73;2.80;;;18.00;99.90;;;;;;5032479;28;20467;-74
2021/06/21 08:16:11;;;;;;;3.30;2.70;;;18.00;99.90;;;;;;5035249;28;21008;-74
2021/06/21 08:18:38;;;;;;;3.07;2.70;;;18.00;99.90;;;;;;5050939;28;20545;-74
2021/06/21 08:21:05;;;;;;;1.70;1.60;;;18.00;99.90;;;;;;5051345;28;20509;-75
2021/06/21 08:23:34;;;;;;;2.13;1.93;;;18.00;99.90;;;;;;5033880;28;20482;-74
2021/06/21 08:26:04;;;;;;;1.50;1.40;;;17.80;99.90;;;;;;5046926;28;20466;-74
2021/06/21 08:28:31;;;;;;;1.40;1.10;;;17.80;99.90;;;;;;5032147;28;20440;-75
2021/06/21 08:30:58;;;;;;;1.63;1.20;;;17.70;99.90;;;;;;5042425;28;20463;-74
2021/06/21 08:33:25;;;;;;;3.43;0.93;;;17.60;99.90;;;;;;5052128;28;20419;-74
2021/06/21 08:35:55;;;;;;;1.50;0.80;;;17.60;99.90;;;;;;5051283;28;20466;-74
2021/06/21 08:38:22;;;;;;;1.50;1.00;;;17.60;99.90;;;;;;5050070;28;20462;-74
2021/06/21 08:40:49;;;;;;;1.50;1.00;;;17.60;99.90;;;;;;5051454;28;20891;-74
2021/06/21 08:43:17;;;;;;;1.23;0.60;;;17.60;99.90;;;;;;5050760;28;20427;-73
2021/06/21 08:45:45;;;;;;;1.00;0.90;;;17.60;99.90;;;;;;5049548;28;20462;-75
2021/06/21 08:48:12;;;;;;;2.43;0.70;;;17.50;99.90;;;;;;5051571;28;20453;-76
2021/06/21 08:50:41;;;;;;;1.13;0.70;;;17.60;99.90;;;;;;5066589;28;20868;-76
2021/06/21 08:53:12;;;;;;;2.07;0.70;;;17.60;99.90;;;;;;5051185;28;20442;-76
2021/06/21 08:55:40;;;;;;;1.10;1.00;;;17.60;99.90;;;;;;5035464;28;20451;-75
2021/06/21 08:58:07;;;;;;;1.00;0.90;;;17.70;99.90;;;;;;5051366;28;20447;-76
2021/06/21 09:00:35;;;;;;;0.93;0.63;;;17.70;99.90;;;;;;5049931;28;20473;-76
2021/06/21 09:03:03;;;;;;;1.50;1.40;;;17.80;99.90;;;;;;5051820;28;20435;-75
2021/06/21 09:05:35;;;;;;;2.00;1.53;;;17.90;99.90;;;;;;5050249;28;20462;-76
2021/06/21 09:08:04;;;;;;;1.43;1.13;;;17.80;99.90;;;;;;5020465;28;20973;-76
2021/06/21 09:10:33;;;;;;;2.50;1.00;;;17.90;99.90;;;;;;5031291;28;20514;-76
2021/06/21 09:13:19;;;;;;;2.90;1.13;;;17.80;99.90;;;;;;5047033;28;20963;-75
2021/06/21 09:15:59;;;;;;;2.00;1.40;;;17.90;99.90;;;;;;5034470;28;20470;-76
2021/06/21 09:18:35;;;;;;;2.17;1.23;;;17.90;99.90;;;;;;5066608;28;20893;-76
2021/06/21 09:21:24;;;;;;;1.50;1.10;;;17.80;99.90;;;;;;5051380;28;20455;-75
2021/06/21 09:24:26;;;;;;;1.17;1.03;;;17.80;99.90;;;;;;5046913;28;20435;-77
2021/06/21 09:26:58;;;;;;;1.13;1.00;;;17.80;99.90;;;;;;5031678;28;20857;-75
2021/06/21 09:29:36;;;;;;;1.27;1.00;;;17.80;99.90;;;;;;5031350;28;20539;-76
2021/06/21 09:32:41;;;;;;;1.70;1.37;;;17.70;99.90;;;;;;5032386;28;20474;-74
2021/06/21 09:35:11;;;;;;;1.50;1.20;;;17.70;99.90;;;;;;5034953;28;20550;-76
2021/06/21 09:37:48;;;;;;;2.40;0.90;;;17.70;99.90;;;;;;5044247;28;20435;-75
2021/06/21 09:40:46;;;;;;;2.70;1.33;;;17.70;99.90;;;;;;5070157;28;20529;-76
2021/06/21 09:43:22;;;;;;;1.73;1.57;;;17.80;99.90;;;;;;5046259;28;20431;-76
2021/06/21 09:46:11;;;;;;;2.30;2.10;;;17.80;99.90;;;;;;5068899;28;20450;-75
2021/06/21 09:48:42;;;;;;;2.07;1.87;;;17.80;99.90;;;;;;5054055;28;20526;-74
2021/06/21 09:51:31;;;;;;;4.33;1.57;;;17.90;99.90;;;;;;5054893;28;20541;-74
2021/06/21 09:54:04;;;;;;;2.37;1.30;;;18.00;99.90;;;;;;5035343;28;20412;-74
2021/06/21 09:56:40;;;;;;;3.73;1.10;;;18.10;99.90;;;;;;5033236;28;20456;-74
2021/06/21 09:59:23;;;;;;;1.50;1.03;;;18.20;99.90;;;;;;5050248;28;20455;-75
2021/06/21 10:02:11;;;;;;;1.70;0.93;;;18.30;99.90;;;;;;5059857;28;20459;-74
2021/06/21 10:04:44;;;;;;;2.67;1.23;;;18.40;99.90;;;;;;5037036;28;21035;-74
2021/06/21 10:07:35;;;;;;;1.03;0.80;;;18.30;99.90;;;;;;5058568;28;21162;-73
2021/06/21 10:10:11;;;;;;;0.80;0.70;;;18.30;99.90;;;;;;5054179;28;20463;-74
2021/06/21 10:12:41;;;;;;;1.47;0.50;;;18.20;99.90;;;;;;5037588;28;20789;-74
2021/06/21 10:15:11;;;;;;;1.07;0.83;;;18.20;99.90;;;;;;5033885;28;20758;-73
2021/06/21 10:17:39;;;;;;;1.17;1.07;;;18.20;99.90;;;;;;5045896;28;20437;-76
2021/06/21 10:20:08;;;;;;;2.10;0.93;;;18.20;99.90;;;;;;5054181;28;20420;-73
2021/06/21 10:22:37;;;;;;;1.87;1.10;;;18.30;99.90;;;;;;5053803;28;20522;-73
2021/06/21 10:25:06;;;;;;;1.87;1.30;;;18.30;99.90;;;;;;5054003;28;20419;-74
2021/06/21 10:27:39;;;;;;;1.60;1.40;;;18.40;99.90;;;;;;5052988;28;20431;-74
2021/06/21 10:30:12;;;;;;;3.47;1.23;;;18.50;99.90;;;;;;5054005;28;20459;-75
2021/06/21 10:32:40;;;;;;;1.37;1.20;;;18.40;99.90;;;;;;5041659;28;20802;-74
2021/06/21 10:35:14;;;;;;;1.83;1.10;;;18.30;99.90;;;;;;5049360;28;20460;-74
2021/06/21 10:38:08;;;;;;;1.10;0.90;;;18.30;99.90;;;;;;5058775;28;20481;-73
2021/06/21 10:40:54;;;;;;;1.53;1.30;;;18.20;99.90;;;;;;5050922;28;20787;-74
2021/06/21 10:43:40;;;;;;;1.60;1.50;;;18.30;99.90;;;;;;5053828;28;20454;-76
2021/06/21 10:46:24;;;;;;;1.60;1.50;;;18.30;99.90;;;;;;5052518;28;20463;-73
2021/06/21 10:49:01;;;;;;;1.43;1.33;;;18.30;99.90;;;;;;5036042;28;20486;-74
2021/06/21 10:51:30;;;;;;;1.20;1.10;;;18.30;99.90;;;;;;5053075;28;20482;-74
2021/06/21 10:53:57;;;;;;;1.97;1.50;;;18.20;99.90;;;;;;5034090;28;20431;-74
2021/06/21 10:56:45;;;;;;;1.10;1.00;;;18.20;99.90;;;;;;5033474;28;20459;-73
2021/06/21 10:59:14;;;;;;;1.20;1.03;;;18.20;99.90;;;;;;5033665;28;20498;-75
2021/06/21 11:01:45;;;;;;;2.83;1.30;;;18.20;99.90;;;;;;5042765;28;20482;-74
2021/06/21 11:04:32;;;;;;;1.50;1.40;;;18.20;99.90;;;;;;5053781;28;20458;-74
2021/06/21 11:07:17;;;;;;;2.10;1.43;;;18.30;99.90;;;;;;5067794;28;20570;-73
2021/06/21 11:09:55;;;;;;;4.70;3.23;;;18.30;99.90;;;;;;5069069;28;20561;-73
2021/06/21 11:12:22;;;;;;;3.43;2.87;;;18.30;99.90;;;;;;5053206;28;20497;-73
2021/06/21 11:15:10;;;;;;;2.70;1.93;;;18.30;99.90;;;;;;5052836;28;20536;-74
2021/06/21 11:17:49;;;;;;;5.00;3.40;;;18.30;99.90;;;;;;5033479;28;20448;-73
2021/06/21 11:20:40;;;;;;;5.23;3.47;;;18.40;99.90;;;;;;5033091;28;20420;-73
2021/06/21 11:23:09;;;;;;;3.10;2.80;;;18.40;99.90;;;;;;5046700;28;20454;-73
2021/06/21 11:25:42;;;;;;;2.47;2.27;;;18.40;99.90;;;;;;5047644;28;20989;-73
2021/06/21 11:28:34;;;;;;;2.90;2.33;;;18.40;99.90;;;;;;5033193;28;20482;-73
2021/06/21 11:31:24;;;;;;;2.17;1.93;;;18.40;99.90;;;;;;5036782;28;20565;-75
2021/06/21 11:33:53;;;;;;;2.40;1.70;;;18.40;99.90;;;;;;5053150;28;20515;-74
2021/06/21 11:36:43;;;;;;;2.73;2.07;;;18.40;99.90;;;;;;5052560;28;20485;-73
2021/06/21 11:39:22;;;;;;;2.20;2.00;;;18.40;99.90;;;;;;5032975;28;20448;-73
2021/06/21 11:41:59;;;;;;;3.47;2.10;;;18.30;99.90;;;;;;5042895;28;20558;-73
2021/06/21 11:44:40;;;;;;;2.80;2.20;;;18.40;99.90;;;;;;5053066;28;20434;-73
2021/06/21 11:47:17;;;;;;;2.87;2.30;;;18.40;99.90;;;;;;5066964;28;20809;-74
2021/06/21 11:49:47;;;;;;;4.03;2.43;;;18.30;99.90;;;;;;5051315;28;20908;-74
2021/06/21 11:52:25;;;;;;;3.10;2.90;;;18.30;99.90;;;;;;5051592;28;20466;-74
2021/06/21 11:54:54;;;;;;;2.70;2.50;;;18.30;99.90;;;;;;5051988;28;20427;-73
2021/06/21 11:57:24;;;;;;;3.50;2.83;;;18.30;99.90;;;;;;5052290;28;20474;-73
2021/06/21 11:59:52;;;;;;;4.00;3.43;;;18.50;99.90;;;;;;5047206;28;20506;-74
2021/06/21 12:02:24;;;;;;;3.77;3.57;;;18.60;99.90;;;;;;5053510;28;20844;-74
2021/06/21 12:04:57;;;;;;;4.87;4.37;;;18.60;99.90;;;;;;5051276;28;20442;-73
2021/06/21 12:07:32;;;;;;;5.27;4.77;;;18.70;99.90;;;;;;5050489;28;20467;-73
2021/06/21 12:10:18;;;;;;;4.20;3.90;;;18.70;99.90;;;;;;5052619;28;20896;-73
2021/06/21 12:12:47;;;;;;;6.17;3.77;;;18.70;99.90;;;;;;5052430;28;20443;-74
2021/06/21 12:15:29;;;;;;;4.13;3.83;;;18.70;99.90;;;;;;5051446;28;20462;-73
2021/06/21 12:17:59;;;;;;;4.27;3.87;;;18.80;99.90;;;;;;5051043;28;20512;-72
2021/06/21 12:20:27;;;;;;;4.60;4.20;;;18.90;99.90;;;;;;5049704;28;20451;-73
2021/06/21 12:23:00;;;;;;;4.30;3.90;;;18.90;99.90;;;;;;5034355;28;20442;-74
2021/06/21 12:25:35;;;;;;;4.83;4.43;;;19.10;99.90;;;;;;5033760;28;20455;-73
2021/06/21 12:28:11;;;;;;;4.50;4.20;;;19.00;99.90;;;;;;5034134;28;20449;-72
2021/06/21 12:31:02;;;;;;;6.50;4.00;;;19.10;99.90;;;;;;5030691;28;20511;-73
2021/06/21 12:33:35;;;;;;;4.80;4.40;;;19.00;99.90;;;;;;5012550;28;20421;-74
2021/06/21 12:36:09;;;;;;;5.63;4.10;;;19.00;99.90;;;;;;5020098;28;20460;-73
2021/06/21 12:38:40;;;;;;;4.60;4.30;;;19.00;99.90;;;;;;5014259;28;20463;-74
2021/06/21 12:41:17;;;;;;;3.87;3.60;;;19.00;99.90;;;;;;5031649;28;20481;-72
2021/06/21 12:43:55;;;;;;;4.80;4.40;;;19.00;99.90;;;;;;5031458;28;20775;-74
2021/06/21 12:46:25;;;;;;;4.40;4.10;;;19.00;99.90;;;;;;5041148;28;20479;-74
2021/06/21 12:48:53;;;;;;;4.73;4.40;;;19.10;99.90;;;;;;5051823;28;20506;-72
2021/06/21 12:51:21;;;;;;;4.50;4.10;;;19.30;99.90;;;;;;5050247;28;20463;-74
2021/06/21 12:53:52;;;;;;;4.83;4.43;;;19.30;99.90;;;;;;5050947;28;21020;-73
2021/06/21 12:56:46;;;;;;;4.47;4.10;;;19.30;99.90;;;;;;5051326;28;20975;-74
2021/06/21 12:59:31;;;;;;;3.97;3.67;;;19.40;99.90;;;;;;5050320;28;20479;-73
2021/06/21 13:02:06;;;;;;;5.07;4.60;;;19.50;99.90;;;;;;5049756;28;20475;-73